sensor_id;sensor_type;location;lat;lon;timestamp;pressure;altitude;pressure_sealevel;temperature;humidity
45793;BME280;31495;42.740;22.908;2022-09-30T00:00:04;92840.94;;;12.43;88.57
45793;BME280;31495;42.740;22.908;2022-09-30T00:01:03;92842.44;;;12.39;88.54
45793;BME280;31495;42.740;22.908;2022-09-30T00:02:03;92842.88;;;12.36;88.28
45793;BME280;31495;42.740;22.908;2022-09-30T00:03:02;92856.63;;;12.36;88.28
45793;BME280;31495;42.740;22.908;2022-09-30T00:04:02;92852.94;;;12.32;88.34
45793;BME280;31495;42.740;22.908;2022-09-30T00:05:01;92852.03;;;12.26;88.35
45793;BME280;31495;42.740;22.908;2022-09-30T00:06:02;92848.19;;;12.29;88.44
45793;BME280;31495;42.740;22.908;2022-09-30T00:07:02;92851.13;;;12.32;88.45
45793;BME280;31495;42.740;22.908;2022-09-30T00:08:04;92846.97;;;12.31;88.51
45793;BME280;31495;42.740;22.908;2022-09-30T00:09:04;92850.00;;;12.28;88.46
45793;BME280;31495;42.740;22.908;2022-09-30T00:10:03;92852.03;;;12.26;88.49
45793;BME280;31495;42.740;22.908;2022-09-30T00:11:06;92853.38;;;12.29;88.27
45793;BME280;31495;42.740;22.908;2022-09-30T00:12:06;92852.50;;;12.23;88.43
45793;BME280;31495;42.740;22.908;2022-09-30T00:13:05;92856.09;;;12.22;88.61
45793;BME280;31495;42.740;22.908;2022-09-30T00:14:05;92864.31;;;12.19;88.57
45793;BME280;31495;42.740;22.908;2022-09-30T00:15:05;92857.91;;;12.22;88.48
45793;BME280;31495;42.740;22.908;2022-09-30T00:16:05;92859.91;;;12.20;88.51
45793;BME280;31495;42.740;22.908;2022-09-30T00:17:04;92858.59;;;12.17;88.64
45793;BME280;31495;42.740;22.908;2022-09-30T00:18:04;92857.31;;;12.20;88.67
45793;BME280;31495;42.740;22.908;2022-09-30T00:19:03;92858.13;;;12.20;88.78
45793;BME280;31495;42.740;22.908;2022-09-30T00:20:04;92852.72;;;12.22;88.63
45793;BME280;31495;42.740;22.908;2022-09-30T00:21:03;92847.75;;;12.20;88.48
45793;BME280;31495;42.740;22.908;2022-09-30T00:22:03;92850.81;;;12.17;88.72
45793;BME280;31495;42.740;22.908;2022-09-30T00:23:03;92847.97;;;12.19;88.66
45793;BME280;31495;42.740;22.908;2022-09-30T00:24:02;92850.34;;;12.20;88.53
45793;BME280;31495;42.740;22.908;2022-09-30T00:25:02;92850.34;;;12.20;88.59
45793;BME280;31495;42.740;22.908;2022-09-30T00:26:03;92849.00;;;12.18;88.74
45793;BME280;31495;42.740;22.908;2022-09-30T00:27:03;92850.25;;;12.15;88.50
45793;BME280;31495;42.740;22.908;2022-09-30T00:28:02;92850.25;;;12.15;88.35
45793;BME280;31495;42.740;22.908;2022-09-30T00:29:02;92848.09;;;12.12;88.30
45793;BME280;31495;42.740;22.908;2022-09-30T00:30:02;92842.69;;;12.13;88.10
45793;BME280;31495;42.740;22.908;2022-09-30T00:31:03;92838.06;;;12.16;88.06
45793;BME280;31495;42.740;22.908;2022-09-30T00:32:03;92834.09;;;12.13;88.16
45793;BME280;31495;42.740;22.908;2022-09-30T00:33:02;92837.94;;;12.10;88.13
45793;BME280;31495;42.740;22.908;2022-09-30T00:34:02;92835.34;;;12.10;88.24
45793;BME280;31495;42.740;22.908;2022-09-30T00:35:04;92828.91;;;12.13;88.06
45793;BME280;31495;42.740;22.908;2022-09-30T00:36:04;92835.69;;;12.14;88.13
45793;BME280;31495;42.740;22.908;2022-09-30T00:37:04;92830.16;;;12.10;88.08
45793;BME280;31495;42.740;22.908;2022-09-30T00:38:03;92833.44;;;12.06;88.18
45793;BME280;31495;42.740;22.908;2022-09-30T00:39:03;92829.16;;;12.00;88.56
45793;BME280;31495;42.740;22.908;2022-09-30T00:40:03;92825.66;;;11.94;88.97
45793;BME280;31495;42.740;22.908;2022-09-30T00:41:02;92830.41;;;11.97;89.12
45793;BME280;31495;42.740;22.908;2022-09-30T00:42:03;92827.00;;;11.97;89.28
45793;BME280;31495;42.740;22.908;2022-09-30T00:43:14;92832.19;;;11.97;89.13
45793;BME280;31495;42.740;22.908;2022-09-30T00:45:33;92818.88;;;11.93;89.00
45793;BME280;31495;42.740;22.908;2022-09-30T00:46:37;92825.44;;;11.95;88.79
45793;BME280;31495;42.740;22.908;2022-09-30T00:47:50;92826.44;;;11.94;88.61
45793;BME280;31495;42.740;22.908;2022-09-30T00:48:51;92829.47;;;11.91;88.83
45793;BME280;31495;42.740;22.908;2022-09-30T00:49:52;92822.94;;;11.89;88.53
45793;BME280;31495;42.740;22.908;2022-09-30T00:50:51;92829.34;;;11.86;88.50
45793;BME280;31495;42.740;22.908;2022-09-30T00:51:54;92819.41;;;11.83;88.50
45793;BME280;31495;42.740;22.908;2022-09-30T00:52:55;92820.91;;;11.79;88.59
45793;BME280;31495;42.740;22.908;2022-09-30T00:53:57;92823.94;;;11.76;88.66
45793;BME280;31495;42.740;22.908;2022-09-30T00:54:58;92831.72;;;11.76;88.75
45793;BME280;31495;42.740;22.908;2022-09-30T00:57:03;92826.97;;;11.73;88.59
45793;BME280;31495;42.740;22.908;2022-09-30T00:58:05;92830.00;;;11.70;88.80
45793;BME280;31495;42.740;22.908;2022-09-30T00:59:15;92835.97;;;11.70;88.71
45793;BME280;31495;42.740;22.908;2022-09-30T01:00:17;92840.81;;;11.67;88.57
45793;BME280;31495;42.740;22.908;2022-09-30T01:01:16;92839.59;;;11.69;88.32
45793;BME280;31495;42.740;22.908;2022-09-30T01:02:16;92839.72;;;11.74;87.59
45793;BME280;31495;42.740;22.908;2022-09-30T01:03:16;92846.91;;;11.72;87.11
45793;BME280;31495;42.740;22.908;2022-09-30T01:04:22;92840.94;;;11.72;87.12
45793;BME280;31495;42.740;22.908;2022-09-30T01:05:23;92843.53;;;11.72;87.00
45793;BME280;31495;42.740;22.908;2022-09-30T01:06:23;92839.00;;;11.67;87.38
45793;BME280;31495;42.740;22.908;2022-09-30T01:07:22;92835.84;;;11.65;87.20
45793;BME280;31495;42.740;22.908;2022-09-30T01:08:23;92833.47;;;11.64;87.55
45793;BME280;31495;42.740;22.908;2022-09-30T01:09:22;92837.66;;;11.65;87.64
45793;BME280;31495;42.740;22.908;2022-09-30T01:10:22;92837.09;;;11.63;87.81
45793;BME280;31495;42.740;22.908;2022-09-30T01:11:21;92837.88;;;11.63;88.02
45793;BME280;31495;42.740;22.908;2022-09-30T01:12:21;92839.09;;;11.61;88.07
45793;BME280;31495;42.740;22.908;2022-09-30T01:13:23;92838.09;;;11.62;88.22
45793;BME280;31495;42.740;22.908;2022-09-30T01:14:24;92832.91;;;11.62;88.03
45793;BME280;31495;42.740;22.908;2022-09-30T01:15:35;92839.09;;;11.61;88.06
45793;BME280;31495;42.740;22.908;2022-09-30T01:16:43;92841.81;;;11.66;87.61
45793;BME280;31495;42.740;22.908;2022-09-30T01:17:58;92833.81;;;11.67;87.23
45793;BME280;31495;42.740;22.908;2022-09-30T01:24:23;92840.69;;;11.50;87.53
45793;BME280;31495;42.740;22.908;2022-09-30T01:33:13;92850.31;;;11.43;86.86
45793;BME280;31495;42.740;22.908;2022-09-30T01:34:19;92850.69;;;11.46;86.72
45793;BME280;31495;42.740;22.908;2022-09-30T01:35:37;92856.66;;;11.47;86.63
45793;BME280;31495;42.740;22.908;2022-09-30T01:36:49;92850.91;;;11.45;86.59
45793;BME280;31495;42.740;22.908;2022-09-30T01:40:15;92844.50;;;11.47;86.17
45793;BME280;31495;42.740;22.908;2022-09-30T01:42:53;92852.13;;;11.42;86.22
45793;BME280;31495;42.740;22.908;2022-09-30T01:44:01;92850.78;;;11.39;86.50
45793;BME280;31495;42.740;22.908;2022-09-30T01:47:26;92864.19;;;11.36;86.48
45793;BME280;31495;42.740;22.908;2022-09-30T01:48:36;92864.75;;;11.38;86.43
45793;BME280;31495;42.740;22.908;2022-09-30T01:49:46;92864.75;;;11.38;86.24
45793;BME280;31495;42.740;22.908;2022-09-30T01:50:51;92860.78;;;11.36;86.43
45793;BME280;31495;42.740;22.908;2022-09-30T01:52:06;92857.41;;;11.35;86.72
45793;BME280;31495;42.740;22.908;2022-09-30T01:54:26;92867.91;;;11.40;86.86
45793;BME280;31495;42.740;22.908;2022-09-30T01:55:34;92868.38;;;11.49;86.38
45793;BME280;31495;42.740;22.908;2022-09-30T01:56:36;92867.81;;;11.47;86.42
45793;BME280;31495;42.740;22.908;2022-09-30T01:59:00;92868.03;;;11.46;86.34
45793;BME280;31495;42.740;22.908;2022-09-30T02:01:05;92868.47;;;11.43;86.60
45793;BME280;31495;42.740;22.908;2022-09-30T02:02:11;92877.59;;;11.45;86.66
45793;BME280;31495;42.740;22.908;2022-09-30T02:03:14;92876.59;;;11.46;86.69
45793;BME280;31495;42.740;22.908;2022-09-30T02:04:18;92876.34;;;11.48;86.60
45793;BME280;31495;42.740;22.908;2022-09-30T02:05:29;92874.56;;;11.48;86.60
45793;BME280;31495;42.740;22.908;2022-09-30T02:06:37;92876.59;;;11.46;86.26
45793;BME280;31495;42.740;22.908;2022-09-30T02:07:39;92876.72;;;11.51;86.30
45793;BME280;31495;42.740;22.908;2022-09-30T02:08:46;92867.59;;;11.49;86.10
45793;BME280;31495;42.740;22.908;2022-09-30T02:09:49;92866.16;;;11.53;85.87
45793;BME280;31495;42.740;22.908;2022-09-30T02:10:57;92867.16;;;11.52;85.84
45793;BME280;31495;42.740;22.908;2022-09-30T02:11:59;92868.16;;;11.51;85.74
45793;BME280;31495;42.740;22.908;2022-09-30T02:14:21;92872.66;;;11.44;85.70
45793;BME280;31495;42.740;22.908;2022-09-30T02:15:23;92875.56;;;11.47;85.67
45793;BME280;31495;42.740;22.908;2022-09-30T02:16:26;92875.25;;;11.44;85.83
45793;BME280;31495;42.740;22.908;2022-09-30T02:17:28;92873.53;;;11.37;86.00
45793;BME280;31495;42.740;22.908;2022-09-30T02:18:34;92875.13;;;11.38;86.02
45793;BME280;31495;42.740;22.908;2022-09-30T02:19:50;92875.47;;;11.42;85.91
45793;BME280;31495;42.740;22.908;2022-09-30T02:20:52;92874.34;;;11.38;85.98
45793;BME280;31495;42.740;22.908;2022-09-30T02:22:00;92874.78;;;11.35;86.01
45793;BME280;31495;42.740;22.908;2022-09-30T02:24:14;92869.47;;;11.30;85.66
45793;BME280;31495;42.740;22.908;2022-09-30T02:25:21;92872.50;;;11.27;85.65
45793;BME280;31495;42.740;22.908;2022-09-30T02:26:23;92876.50;;;11.22;85.62
45793;BME280;31495;42.740;22.908;2022-09-30T02:27:35;92875.94;;;11.20;85.42
45793;BME280;31495;42.740;22.908;2022-09-30T02:28:41;92877.97;;;11.18;85.39
45793;BME280;31495;42.740;22.908;2022-09-30T02:29:44;92870.22;;;11.18;85.26
45793;BME280;31495;42.740;22.908;2022-09-30T02:30:48;92870.28;;;11.12;85.27
45793;BME280;31495;42.740;22.908;2022-09-30T02:31:50;92881.44;;;11.12;85.46
45793;BME280;31495;42.740;22.908;2022-09-30T02:33:00;92878.19;;;11.17;85.38
45793;BME280;31495;42.740;22.908;2022-09-30T02:35:11;92874.75;;;11.04;85.60
45793;BME280;31495;42.740;22.908;2022-09-30T02:37:15;92879.56;;;11.01;85.56
45793;BME280;31495;42.740;22.908;2022-09-30T02:38:24;92881.59;;;10.99;85.90
45793;BME280;31495;42.740;22.908;2022-09-30T02:39:27;92875.47;;;10.93;86.00
45793;BME280;31495;42.740;22.908;2022-09-30T02:40:29;92876.50;;;10.92;86.08
45793;BME280;31495;42.740;22.908;2022-09-30T02:41:32;92881.91;;;10.91;86.05
45793;BME280;31495;42.740;22.908;2022-09-30T02:42:33;92873.53;;;10.89;86.13
45793;BME280;31495;42.740;22.908;2022-09-30T02:43:32;92870.53;;;10.92;86.19
45793;BME280;31495;42.740;22.908;2022-09-30T02:44:32;92870.91;;;10.95;86.00
45793;BME280;31495;42.740;22.908;2022-09-30T02:45:36;92871.91;;;10.94;85.93
45793;BME280;31495;42.740;22.908;2022-09-30T02:47:24;92873.13;;;10.92;86.21
45793;BME280;31495;42.740;22.908;2022-09-30T02:48:02;92875.78;;;10.85;86.58
45793;BME280;31495;42.740;22.908;2022-09-30T02:49:04;92874.66;;;10.81;86.40
45793;BME280;31495;42.740;22.908;2022-09-30T02:51:21;92871.41;;;10.85;86.16
45793;BME280;31495;42.740;22.908;2022-09-30T02:52:24;92880.19;;;10.84;85.94
45793;BME280;31495;42.740;22.908;2022-09-30T02:55:09;92876.44;;;10.80;85.56
45793;BME280;31495;42.740;22.908;2022-09-30T02:56:55;92876.81;;;10.84;85.54
45793;BME280;31495;42.740;22.908;2022-09-30T02:58:01;92873.41;;;10.83;85.50
45793;BME280;31495;42.740;22.908;2022-09-30T02:59:04;92881.38;;;10.82;85.76
45793;BME280;31495;42.740;22.908;2022-09-30T03:00:03;92878.66;;;10.77;85.99
45793;BME280;31495;42.740;22.908;2022-09-30T03:01:03;92881.69;;;10.74;86.06
45793;BME280;31495;42.740;22.908;2022-09-30T03:02:02;92877.97;;;10.70;86.16
45793;BME280;31495;42.740;22.908;2022-09-30T03:03:06;92877.19;;;10.69;86.28
45793;BME280;31495;42.740;22.908;2022-09-30T03:04:09;92881.97;;;10.65;86.57
45793;BME280;31495;42.740;22.908;2022-09-30T03:05:09;92878.16;;;10.68;86.16
45793;BME280;31495;42.740;22.908;2022-09-30T03:06:09;92883.00;;;10.64;86.22
45793;BME280;31495;42.740;22.908;2022-09-30T03:07:09;92884.19;;;10.62;86.41
45793;BME280;31495;42.740;22.908;2022-09-30T03:08:09;92871.84;;;10.64;86.66
45793;BME280;31495;42.740;22.908;2022-09-30T03:09:09;92868.25;;;10.65;86.41
45793;BME280;31495;42.740;22.908;2022-09-30T03:10:12;92865.09;;;10.63;86.45
45793;BME280;31495;42.740;22.908;2022-09-30T03:11:21;92865.09;;;10.63;86.45
45793;BME280;31495;42.740;22.908;2022-09-30T03:12:25;92871.63;;;10.65;86.46
45793;BME280;31495;42.740;22.908;2022-09-30T03:15:53;92865.53;;;10.60;86.36
45793;BME280;31495;42.740;22.908;2022-09-30T03:17:17;92875.88;;;10.60;86.22
45793;BME280;31495;42.740;22.908;2022-09-30T03:18:22;92877.28;;;10.56;86.14
45793;BME280;31495;42.740;22.908;2022-09-30T03:20:35;92880.09;;;10.54;85.80
45793;BME280;31495;42.740;22.908;2022-09-30T03:22:55;92886.94;;;10.48;85.76
45793;BME280;31495;42.740;22.908;2022-09-30T03:26:28;92881.56;;;10.50;86.38
45793;BME280;31495;42.740;22.908;2022-09-30T03:27:49;92876.50;;;10.55;86.16
45793;BME280;31495;42.740;22.908;2022-09-30T03:28:54;92889.66;;;10.54;86.17
45793;BME280;31495;42.740;22.908;2022-09-30T03:30:04;92886.72;;;10.50;86.31
45793;BME280;31495;42.740;22.908;2022-09-30T03:31:07;92895.69;;;10.47;86.04
45793;BME280;31495;42.740;22.908;2022-09-30T03:33:54;92903.88;;;10.44;86.31
45793;BME280;31495;42.740;22.908;2022-09-30T03:36:38;92914.81;;;10.46;86.63
45793;BME280;31495;42.740;22.908;2022-09-30T03:37:43;92917.41;;;10.46;86.26
45793;BME280;31495;42.740;22.908;2022-09-30T03:39:49;92923.16;;;10.48;86.55
45793;BME280;31495;42.740;22.908;2022-09-30T03:42:09;92911.81;;;10.50;87.63
45793;BME280;31495;42.740;22.908;2022-09-30T03:43:14;92910.78;;;10.51;88.27
45793;BME280;31495;42.740;22.908;2022-09-30T03:44:18;92907.00;;;10.53;88.19
45793;BME280;31495;42.740;22.908;2022-09-30T03:47:33;92920.84;;;10.59;87.64
45793;BME280;31495;42.740;22.908;2022-09-30T03:48:35;92924.81;;;10.61;87.34
45793;BME280;31495;42.740;22.908;2022-09-30T03:49:40;92924.81;;;10.61;87.08
45793;BME280;31495;42.740;22.908;2022-09-30T03:50:40;92915.47;;;10.60;87.03
45793;BME280;31495;42.740;22.908;2022-09-30T03:51:40;92917.41;;;10.65;86.97
45793;BME280;31495;42.740;22.908;2022-09-30T03:52:39;92914.53;;;10.73;86.46
45793;BME280;31495;42.740;22.908;2022-09-30T03:53:39;92916.56;;;10.71;86.54
45793;BME280;31495;42.740;22.908;2022-09-30T03:54:46;92917.34;;;10.72;86.30
45793;BME280;31495;42.740;22.908;2022-09-30T03:55:47;92916.19;;;10.68;86.55
45793;BME280;31495;42.740;22.908;2022-09-30T03:56:48;92906.41;;;10.70;86.70
45793;BME280;31495;42.740;22.908;2022-09-30T03:57:48;92912.38;;;10.70;86.83
45793;BME280;31495;42.740;22.908;2022-09-30T03:58:48;92916.78;;;10.70;86.78
45793;BME280;31495;42.740;22.908;2022-09-30T03:59:47;92910.97;;;10.74;86.96
45793;BME280;31495;42.740;22.908;2022-09-30T04:00:47;92914.47;;;10.80;86.98
45793;BME280;31495;42.740;22.908;2022-09-30T04:01:48;92914.25;;;10.81;87.24
45793;BME280;31495;42.740;22.908;2022-09-30T04:02:47;92916.84;;;10.81;87.70
45793;BME280;31495;42.740;22.908;2022-09-30T04:03:47;92918.44;;;10.82;87.81
45793;BME280;31495;42.740;22.908;2022-09-30T04:04:46;92923.19;;;10.85;88.08
45793;BME280;31495;42.740;22.908;2022-09-30T04:05:46;92924.97;;;10.85;88.33
45793;BME280;31495;42.740;22.908;2022-09-30T04:06:45;92924.97;;;10.85;88.57
45793;BME280;31495;42.740;22.908;2022-09-30T04:07:45;92922.72;;;10.89;88.67
45793;BME280;31495;42.740;22.908;2022-09-30T04:08:44;92919.50;;;10.93;89.09
45793;BME280;31495;42.740;22.908;2022-09-30T04:09:44;92912.75;;;10.92;89.25
45793;BME280;31495;42.740;22.908;2022-09-30T04:10:43;92918.28;;;10.96;89.30
45793;BME280;31495;42.740;22.908;2022-09-30T04:11:43;92912.75;;;10.92;89.76
45793;BME280;31495;42.740;22.908;2022-09-30T04:12:42;92914.31;;;10.93;90.09
45793;BME280;31495;42.740;22.908;2022-09-30T04:13:42;92915.91;;;10.94;90.55
45793;BME280;31495;42.740;22.908;2022-09-30T04:14:41;92916.69;;;10.95;90.69
45793;BME280;31495;42.740;22.908;2022-09-30T04:15:40;92912.53;;;10.94;90.56
45793;BME280;31495;42.740;22.908;2022-09-30T04:16:40;92919.91;;;10.90;91.08
45793;BME280;31495;42.740;22.908;2022-09-30T04:17:40;92914.16;;;10.88;91.63
45793;BME280;31495;42.740;22.908;2022-09-30T04:18:39;92909.22;;;10.87;91.59
45793;BME280;31495;42.740;22.908;2022-09-30T04:19:38;92917.53;;;10.89;91.05
45793;BME280;31495;42.740;22.908;2022-09-30T04:20:38;92913.19;;;10.89;91.00
45793;BME280;31495;42.740;22.908;2022-09-30T04:21:37;92916.75;;;10.88;90.96
45793;BME280;31495;42.740;22.908;2022-09-30T04:22:37;92921.06;;;10.94;90.59
45793;BME280;31495;42.740;22.908;2022-09-30T04:23:36;92930.06;;;10.92;90.40
45793;BME280;31495;42.740;22.908;2022-09-30T04:24:36;92924.31;;;10.90;90.19
45793;BME280;31495;42.740;22.908;2022-09-30T04:25:37;92922.06;;;10.93;89.80
45793;BME280;31495;42.740;22.908;2022-09-30T04:26:36;92923.09;;;10.92;89.28
45793;BME280;31495;42.740;22.908;2022-09-30T04:27:35;92923.53;;;10.89;88.76
45793;BME280;31495;42.740;22.908;2022-09-30T04:28:35;92923.53;;;10.89;88.76
45793;BME280;31495;42.740;22.908;2022-09-30T04:29:34;92928.06;;;10.94;88.57
45793;BME280;31495;42.740;22.908;2022-09-30T04:30:33;92918.50;;;10.94;88.49
45793;BME280;31495;42.740;22.908;2022-09-30T04:31:33;92918.91;;;10.91;88.49
45793;BME280;31495;42.740;22.908;2022-09-30T04:32:32;92918.28;;;10.96;88.60
45793;BME280;31495;42.740;22.908;2022-09-30T04:33:32;92913.81;;;11.03;88.55
45793;BME280;31495;42.740;22.908;2022-09-30T04:34:31;92911.00;;;11.04;88.80
45793;BME280;31495;42.740;22.908;2022-09-30T04:35:30;92911.34;;;11.08;88.92
45793;BME280;31495;42.740;22.908;2022-09-30T04:36:30;92921.84;;;11.13;89.20
45793;BME280;31495;42.740;22.908;2022-09-30T04:37:30;92918.25;;;11.14;89.39
45793;BME280;31495;42.740;22.908;2022-09-30T04:38:29;92922.56;;;11.20;89.28
45793;BME280;31495;42.740;22.908;2022-09-30T04:39:30;92924.16;;;11.21;89.22
45793;BME280;31495;42.740;22.908;2022-09-30T04:40:29;92933.28;;;11.24;89.28
45793;BME280;31495;42.740;22.908;2022-09-30T04:41:28;92931.13;;;11.21;89.43
45793;BME280;31495;42.740;22.908;2022-09-30T04:42:27;92933.47;;;11.22;89.60
45793;BME280;31495;42.740;22.908;2022-09-30T04:43:27;92943.63;;;11.24;89.90
45793;BME280;31495;42.740;22.908;2022-09-30T04:44:27;92937.81;;;11.29;89.96
45793;BME280;31495;42.740;22.908;2022-09-30T04:45:26;92947.72;;;11.32;90.18
45793;BME280;31495;42.740;22.908;2022-09-30T04:46:26;92948.28;;;11.34;90.29
45793;BME280;31495;42.740;22.908;2022-09-30T04:47:25;92944.72;;;11.35;90.18
45793;BME280;31495;42.740;22.908;2022-09-30T04:48:24;92941.31;;;11.34;90.41
45793;BME280;31495;42.740;22.908;2022-09-30T04:49:26;92937.59;;;11.30;90.74
45793;BME280;31495;42.740;22.908;2022-09-30T04:50:25;92943.88;;;11.34;90.92
45793;BME280;31495;42.740;22.908;2022-09-30T04:51:25;92944.28;;;11.38;90.90
45793;BME280;31495;42.740;22.908;2022-09-30T04:52:25;92938.84;;;11.39;91.03
45793;BME280;31495;42.740;22.908;2022-09-30T04:53:24;92948.34;;;11.46;90.69
45793;BME280;31495;42.740;22.908;2022-09-30T04:54:23;92951.50;;;11.48;90.43
45793;BME280;31495;42.740;22.908;2022-09-30T04:55:23;92952.31;;;11.48;90.35
45793;BME280;31495;42.740;22.908;2022-09-30T04:56:23;92949.16;;;11.46;90.40
45793;BME280;31495;42.740;22.908;2022-09-30T04:57:24;92952.88;;;11.50;90.16
45793;BME280;31495;42.740;22.908;2022-09-30T04:58:23;92951.75;;;11.46;90.33
45793;BME280;31495;42.740;22.908;2022-09-30T04:59:22;92948.69;;;11.49;90.26
45793;BME280;31495;42.740;22.908;2022-09-30T05:00:22;92955.03;;;11.53;90.00
45793;BME280;31495;42.740;22.908;2022-09-30T05:01:23;92953.00;;;11.55;89.86
45793;BME280;31495;42.740;22.908;2022-09-30T05:02:22;92959.78;;;11.56;89.67
45793;BME280;31495;42.740;22.908;2022-09-30T05:03:21;92964.81;;;11.51;90.05
45793;BME280;31495;42.740;22.908;2022-09-30T05:04:20;92965.81;;;11.50;90.37
45793;BME280;31495;42.740;22.908;2022-09-30T05:05:20;92964.22;;;11.49;90.72
45793;BME280;31495;42.740;22.908;2022-09-30T05:06:19;92972.59;;;11.51;90.84
45793;BME280;31495;42.740;22.908;2022-09-30T05:07:19;92967.41;;;11.51;90.90
45793;BME280;31495;42.740;22.908;2022-09-30T05:08:18;92965.38;;;11.53;90.91
45793;BME280;31495;42.740;22.908;2022-09-30T05:09:17;92964.59;;;11.53;90.98
45793;BME280;31495;42.740;22.908;2022-09-30T05:10:16;92966.75;;;11.56;91.19
45793;BME280;31495;42.740;22.908;2022-09-30T05:11:16;92961.47;;;11.63;90.81
45793;BME280;31495;42.740;22.908;2022-09-30T05:12:16;92965.06;;;11.62;90.55
45793;BME280;31495;42.740;22.908;2022-09-30T05:13:15;92966.06;;;11.61;90.84
45793;BME280;31495;42.740;22.908;2022-09-30T05:14:15;92965.28;;;11.60;91.16
45793;BME280;31495;42.740;22.908;2022-09-30T05:15:14;92957.88;;;11.64;91.07
45793;BME280;31495;42.740;22.908;2022-09-30T05:16:14;92964.50;;;11.59;91.19
45793;BME280;31495;42.740;22.908;2022-09-30T05:17:13;92961.69;;;11.61;91.29
45793;BME280;31495;42.740;22.908;2022-09-30T05:18:13;92961.09;;;11.59;91.14
45793;BME280;31495;42.740;22.908;2022-09-30T05:19:12;92960.34;;;11.58;91.14
45793;BME280;31495;42.740;22.908;2022-09-30T05:20:12;92968.66;;;11.61;91.38
45793;BME280;31495;42.740;22.908;2022-09-30T05:21:14;92962.13;;;11.58;91.46
45793;BME280;31495;42.740;22.908;2022-09-30T05:22:14;92963.69;;;11.59;91.37
45793;BME280;31495;42.740;22.908;2022-09-30T05:23:13;92961.47;;;11.63;91.68
45793;BME280;31495;42.740;22.908;2022-09-30T05:24:13;92972.63;;;11.63;91.51
45793;BME280;31495;42.740;22.908;2022-09-30T05:25:12;92977.03;;;11.63;91.57
45793;BME280;31495;42.740;22.908;2022-09-30T05:26:11;92975.56;;;11.67;91.56
45793;BME280;31495;42.740;22.908;2022-09-30T05:27:11;92981.53;;;11.67;91.53
45793;BME280;31495;42.740;22.908;2022-09-30T05:28:10;92981.09;;;11.70;91.70
45793;BME280;31495;42.740;22.908;2022-09-30T05:29:10;92988.09;;;11.70;91.65
45793;BME280;31495;42.740;22.908;2022-09-30T05:30:09;92983.69;;;11.70;92.03
45793;BME280;31495;42.740;22.908;2022-09-30T05:31:08;92990.72;;;11.82;91.31
45793;BME280;31495;42.740;22.908;2022-09-30T05:32:08;92985.31;;;11.83;91.10
45793;BME280;31495;42.740;22.908;2022-09-30T05:33:08;92981.72;;;11.84;91.03
45793;BME280;31495;42.740;22.908;2022-09-30T05:34:07;92986.25;;;11.89;90.43
45793;BME280;31495;42.740;22.908;2022-09-30T05:35:07;92984.09;;;11.86;90.35
45793;BME280;31495;42.740;22.908;2022-09-30T05:36:07;92983.72;;;11.82;90.49
45793;BME280;31495;42.740;22.908;2022-09-30T05:37:07;92981.38;;;11.81;90.59
45793;BME280;31495;42.740;22.908;2022-09-30T05:38:10;92984.97;;;11.80;90.63
45793;BME280;31495;42.740;22.908;2022-09-30T05:39:10;92986.31;;;11.82;90.30
45793;BME280;31495;42.740;22.908;2022-09-30T05:40:09;92984.53;;;11.83;90.20
45793;BME280;31495;42.740;22.908;2022-09-30T05:41:09;92986.09;;;11.84;90.17
45793;BME280;31495;42.740;22.908;2022-09-30T05:42:09;92988.91;;;11.82;90.32
45793;BME280;31495;42.740;22.908;2022-09-30T05:43:08;92992.09;;;11.84;90.33
45793;BME280;31495;42.740;22.908;2022-09-30T05:44:08;93001.44;;;11.85;90.46
45793;BME280;31495;42.740;22.908;2022-09-30T05:45:08;92994.59;;;11.91;90.61
45793;BME280;31495;42.740;22.908;2022-09-30T05:46:08;93002.38;;;11.91;90.94
45793;BME280;31495;42.740;22.908;2022-09-30T05:47:07;93001.59;;;11.90;91.06
45793;BME280;31495;42.740;22.908;2022-09-30T05:48:09;93003.19;;;11.91;90.90
45793;BME280;31495;42.740;22.908;2022-09-30T05:49:09;93007.38;;;11.92;91.08
45793;BME280;31495;42.740;22.908;2022-09-30T05:50:08;93001.16;;;11.93;91.28
45793;BME280;31495;42.740;22.908;2022-09-30T05:51:07;93002.31;;;11.98;91.48
45793;BME280;31495;42.740;22.908;2022-09-30T05:52:07;93007.63;;;12.03;91.32
45793;BME280;31495;42.740;22.908;2022-09-30T05:53:06;93003.13;;;12.10;91.17
45793;BME280;31495;42.740;22.908;2022-09-30T05:54:06;93001.66;;;12.14;91.01
45793;BME280;31495;42.740;22.908;2022-09-30T05:55:05;93000.66;;;12.15;90.79
45793;BME280;31495;42.740;22.908;2022-09-30T05:56:05;92998.06;;;12.15;90.48
45793;BME280;31495;42.740;22.908;2022-09-30T05:57:04;92997.03;;;12.16;90.35
45793;BME280;31495;42.740;22.908;2022-09-30T05:58:05;92997.38;;;12.20;90.60
45793;BME280;31495;42.740;22.908;2022-09-30T05:59:05;93003.16;;;12.22;90.39
45793;BME280;31495;42.740;22.908;2022-09-30T06:00:04;93009.34;;;12.21;90.41
45793;BME280;31495;42.740;22.908;2022-09-30T06:01:05;93003.94;;;12.22;90.27
45793;BME280;31495;42.740;22.908;2022-09-30T06:02:07;93007.31;;;12.23;90.14
45793;BME280;31495;42.740;22.908;2022-09-30T06:03:07;93010.13;;;12.21;90.18
45793;BME280;31495;42.740;22.908;2022-09-30T06:04:06;93016.78;;;12.17;90.28
45793;BME280;31495;42.740;22.908;2022-09-30T06:05:09;93013.53;;;12.22;90.25
45793;BME280;31495;42.740;22.908;2022-09-30T06:06:09;93008.69;;;12.25;90.20
45793;BME280;31495;42.740;22.908;2022-09-30T06:07:09;93008.47;;;12.27;90.09
45793;BME280;31495;42.740;22.908;2022-09-30T06:08:08;93015.00;;;12.29;90.42
45793;BME280;31495;42.740;22.908;2022-09-30T06:09:08;93017.16;;;12.32;90.47
45793;BME280;31495;42.740;22.908;2022-09-30T06:10:07;93021.13;;;12.35;90.56
45793;BME280;31495;42.740;22.908;2022-09-30T06:11:11;93025.66;;;12.40;90.76